createdAt,value
2023-03-18T00:01:30.005Z,10.00
2023-03-18T00:03:59.279Z,11.55
2023-03-18T00:06:30.275Z,10.05
2023-03-18T00:08:59.606Z,10.32
2023-03-18T00:11:28.704Z,10.70
2023-03-18T00:13:57.856Z,11.95
2023-03-18T00:16:29.768Z,12.73
2023-03-18T00:18:59.045Z,9.38
2023-03-18T00:21:28.827Z,9.43
2023-03-18T00:23:59.045Z,9.25
2023-03-18T00:26:29.417Z,11.85
2023-03-18T00:28:59.093Z,13.32
2023-03-18T00:31:29.981Z,11.73
2023-03-18T00:33:59.189Z,10.43
2023-03-18T00:36:28.768Z,11.77
2023-03-18T00:39:04.033Z,10.07
2023-03-18T00:41:45.034Z,11.32
2023-03-18T00:44:20.654Z,12.60
2023-03-18T00:46:51.572Z,9.77
2023-03-18T00:49:21.346Z,13.13
2023-03-18T00:51:50.624Z,12.25
2023-03-18T00:54:21.219Z,9.10
2023-03-18T00:56:50.837Z,9.60
2023-03-18T00:59:20.113Z,11.77
2023-03-18T01:01:50.671Z,11.55
2023-03-18T01:04:21.949Z,10.88
2023-03-18T01:06:51.450Z,10.13
2023-03-18T01:09:21.220Z,13.32
2023-03-18T01:11:50.423Z,8.65
2023-03-18T01:14:19.751Z,9.40
2023-03-18T01:16:50.512Z,15.65
2023-03-18T01:19:20.365Z,11.00
2023-03-18T01:21:50.219Z,13.05
2023-03-18T01:24:19.670Z,12.13
2023-03-18T01:26:49.184Z,10.50
2023-03-18T01:29:18.324Z,9.60
2023-03-18T01:31:47.491Z,11.15
2023-03-18T01:34:17.897Z,10.25
2023-03-18T01:36:48.317Z,8.65
2023-03-18T01:39:18.123Z,9.23
2023-03-18T01:41:47.447Z,10.23
2023-03-18T01:44:17.741Z,10.93
2023-03-18T01:46:49.868Z,9.10
2023-03-18T01:49:23.191Z,11.30
2023-03-18T01:51:56.709Z,8.60
2023-03-18T01:54:26.998Z,12.45
2023-03-18T01:56:57.016Z,8.65
2023-03-18T01:59:28.874Z,11.07
2023-03-18T02:02:05.224Z,10.05
2023-03-18T02:04:38.728Z,11.20
2023-03-18T02:07:09.407Z,10.93
2023-03-18T02:09:38.727Z,10.75
2023-03-18T02:12:09.123Z,10.85
2023-03-18T02:14:38.432Z,12.73
2023-03-18T02:17:10.966Z,14.98
2023-03-18T02:19:54.517Z,10.75
2023-03-18T02:22:31.578Z,8.50
2023-03-18T02:25:13.185Z,11.27
2023-03-18T02:27:45.738Z,12.60
2023-03-18T02:30:19.446Z,9.55
2023-03-18T02:32:49.667Z,8.57
2023-03-18T02:35:19.077Z,12.25
2023-03-18T02:37:48.543Z,10.00
2023-03-18T02:40:20.549Z,12.52
2023-03-18T02:42:51.761Z,11.43
2023-03-18T02:45:35.495Z,9.82
2023-03-18T02:48:05.745Z,15.32
2023-03-18T02:50:35.601Z,13.63
2023-03-18T02:53:06.627Z,14.40
2023-03-18T02:55:36.308Z,9.18
2023-03-18T02:58:08.216Z,11.57
2023-03-18T03:00:38.078Z,8.70
2023-03-18T03:03:08.791Z,8.05
2023-03-18T03:05:38.951Z,10.73
2023-03-18T03:08:08.964Z,11.55
2023-03-18T03:10:38.559Z,10.50
2023-03-18T03:13:10.528Z,10.55
2023-03-18T03:15:39.877Z,13.13
2023-03-18T03:18:10.480Z,12.85
2023-03-18T03:20:40.105Z,12.23
2023-03-18T03:23:14.576Z,8.88
2023-03-18T03:25:45.163Z,11.75
2023-03-18T03:28:16.790Z,10.50
2023-03-18T03:30:46.249Z,9.35
2023-03-18T03:33:15.737Z,10.13
2023-03-18T03:35:44.589Z,10.85
2023-03-18T03:38:13.218Z,11.55
2023-03-18T03:40:41.988Z,7.25
2023-03-18T03:43:15.047Z,12.93
2023-03-18T03:45:43.985Z,9.70
2023-03-18T03:48:12.793Z,8.63
2023-03-18T03:50:42.025Z,11.52
2023-03-18T03:53:11.542Z,10.80
2023-03-18T03:55:40.367Z,10.93
2023-03-18T03:58:09.529Z,11.27
2023-03-18T04:00:39.573Z,12.65
2023-03-18T04:03:08.420Z,9.73
2023-03-18T04:05:37.326Z,9.90
2023-03-18T04:08:06.653Z,10.05
2023-03-18T04:10:36.792Z,10.50
2023-03-18T04:13:05.425Z,12.10
2023-03-18T04:15:34.326Z,12.05
2023-03-18T04:18:07.328Z,11.43
2023-03-18T04:20:36.683Z,11.05
2023-03-18T04:23:05.211Z,11.57
2023-03-18T04:25:33.968Z,9.68
2023-03-18T04:28:02.585Z,10.00
2023-03-18T04:30:32.454Z,11.27
2023-03-18T04:33:01.988Z,11.02
2023-03-18T04:35:32.092Z,11.02
2023-03-18T04:38:01.047Z,9.20
2023-03-18T04:40:30.574Z,11.07
2023-03-18T04:42:59.391Z,9.40
2023-03-18T04:45:28.305Z,9.02
2023-03-18T04:47:56.837Z,10.93
2023-03-18T04:50:25.672Z,7.70
2023-03-18T04:52:55.958Z,10.10
2023-03-18T04:55:24.681Z,9.05
2023-03-18T04:57:53.636Z,10.90
2023-03-18T05:00:23.830Z,12.32
2023-03-18T05:02:52.569Z,11.60
2023-03-18T05:05:21.284Z,12.13
2023-03-18T05:07:50.045Z,9.50
2023-03-18T05:10:20.286Z,9.10
2023-03-18T05:12:49.895Z,10.63
2023-03-18T05:15:19.512Z,9.00
2023-03-18T05:17:48.113Z,10.35
2023-03-18T05:20:16.859Z,10.32
2023-03-18T05:22:46.003Z,11.95
2023-03-18T05:25:15.082Z,10.32
2023-03-18T05:27:45.007Z,9.60
2023-03-18T05:30:15.515Z,11.95
2023-03-18T05:32:44.255Z,9.63
2023-03-18T05:35:13.018Z,12.65
2023-03-18T05:37:41.756Z,10.50
2023-03-18T05:40:12.891Z,10.73
2023-03-18T05:42:57.133Z,9.73
2023-03-18T05:45:27.595Z,8.68
2023-03-18T05:47:57.358Z,11.18
2023-03-18T05:50:33.247Z,11.00
2023-03-18T05:53:02.059Z,10.07
2023-03-18T05:55:30.870Z,12.30
2023-03-18T05:58:00.442Z,11.05
2023-03-18T06:00:31.100Z,11.30
2023-03-18T06:02:59.882Z,10.13
2023-03-18T06:05:28.727Z,13.75
2023-03-18T06:07:57.673Z,9.55
2023-03-18T06:10:26.755Z,11.52
2023-03-18T06:12:56.472Z,12.18
2023-03-18T06:15:25.915Z,9.43
2023-03-18T06:17:56.386Z,10.00
2023-03-18T06:20:25.082Z,11.68
2023-03-18T06:22:53.660Z,12.68
2023-03-18T06:25:23.434Z,10.48
2023-03-18T06:27:52.375Z,11.45
2023-03-18T06:30:21.530Z,9.48
2023-03-18T06:32:50.122Z,11.50
2023-03-18T06:35:20.325Z,11.48
2023-03-18T06:37:48.841Z,10.90
2023-03-18T06:40:17.552Z,10.63
2023-03-18T06:42:46.630Z,10.82
2023-03-18T06:45:17.167Z,9.25
2023-03-18T06:47:46.667Z,10.70
2023-03-18T06:50:15.435Z,14.35
2023-03-18T06:52:45.409Z,10.85
2023-03-18T06:55:15.041Z,9.50
2023-03-18T06:57:45.740Z,11.50
2023-03-18T07:00:16.164Z,9.02
2023-03-18T07:02:45.850Z,11.45
2023-03-18T07:05:14.874Z,10.32
2023-03-18T07:07:46.330Z,8.80
2023-03-18T07:10:21.795Z,13.43
2023-03-18T07:12:50.533Z,14.35
2023-03-18T07:15:21.150Z,9.05
2023-03-18T07:17:49.804Z,10.63
2023-03-18T07:20:19.268Z,17.27
2023-03-18T07:22:49.654Z,11.48
2023-03-18T07:25:18.351Z,12.38
2023-03-18T07:27:47.142Z,10.27
2023-03-18T07:30:18.095Z,8.52
2023-03-18T07:32:47.081Z,9.93
2023-03-18T07:35:15.865Z,12.43
2023-03-18T07:37:45.035Z,9.90
2023-03-18T07:40:16.933Z,16.80
2023-03-18T07:42:45.670Z,10.98
2023-03-18T07:45:14.279Z,12.00
2023-03-18T07:47:43.504Z,12.30
2023-03-18T07:50:13.663Z,10.30
2023-03-18T07:52:42.247Z,11.40
2023-03-18T07:55:12.049Z,8.77
2023-03-18T07:57:42.286Z,9.68
2023-03-18T08:00:12.552Z,11.30
2023-03-18T08:02:42.413Z,14.32
2023-03-18T08:05:11.835Z,13.45
2023-03-18T08:07:40.656Z,9.30
2023-03-18T08:10:12.614Z,11.93
2023-03-18T08:12:52.589Z,12.35
2023-03-18T08:15:22.108Z,11.95
2023-03-18T08:17:51.253Z,10.82
2023-03-18T08:20:20.209Z,10.35
2023-03-18T08:22:50.100Z,10.40
2023-03-18T08:25:18.887Z,10.48
2023-03-18T08:27:48.803Z,10.95
2023-03-18T08:30:17.437Z,13.70
2023-03-18T08:32:46.540Z,10.38
2023-03-18T08:35:15.153Z,12.02
2023-03-18T08:37:43.790Z,24.48
2023-03-18T08:40:14.131Z,14.02
2023-03-18T08:42:42.742Z,23.73
2023-03-18T08:45:13.519Z,35.72
2023-03-18T08:47:42.720Z,40.53
2023-03-18T08:50:13.332Z,39.45
2023-03-18T08:52:42.353Z,41.70
2023-03-18T08:55:11.597Z,39.65
2023-03-18T08:57:40.245Z,27.17
2023-03-18T09:00:11.582Z,33.33
2023-03-18T09:02:41.719Z,30.95
2023-03-18T09:05:13.738Z,28.50
2023-03-18T09:07:42.432Z,26.48
2023-03-18T09:10:14.415Z,29.88
2023-03-18T09:12:43.435Z,29.25
2023-03-18T09:15:13.081Z,23.80
2023-03-18T09:18:00.014Z,23.67
2023-03-18T09:20:32.913Z,21.98
2023-03-18T09:23:02.421Z,23.67
2023-03-18T09:25:31.355Z,22.25
2023-03-18T09:28:00.963Z,21.80
2023-03-18T09:30:30.295Z,21.02
2023-03-18T09:33:00.422Z,18.83
2023-03-18T09:35:29.859Z,22.00
2023-03-18T09:37:58.624Z,24.23
2023-03-18T09:40:29.025Z,20.92
2023-03-18T09:43:12.264Z,18.05
2023-03-18T09:45:47.089Z,22.13
2023-03-18T09:48:46.096Z,15.65
2023-03-18T09:51:24.423Z,18.58
2023-03-18T09:53:55.254Z,16.98
2023-03-18T09:56:25.980Z,20.38
2023-03-18T09:58:57.606Z,17.13
2023-03-18T10:01:27.840Z,18.63
2023-03-18T10:04:02.135Z,17.27
2023-03-18T10:06:30.743Z,16.33
2023-03-18T10:09:05.821Z,28.95
2023-03-18T10:11:36.946Z,34.22
2023-03-18T10:14:21.711Z,28.45
2023-03-18T10:17:09.464Z,30.63
2023-03-18T10:19:39.613Z,28.67
2023-03-18T10:22:47.474Z,29.55
2023-03-18T10:25:21.407Z,30.23
2023-03-18T10:28:01.872Z,26.98
2023-03-18T10:30:39.821Z,28.00
2023-03-18T10:33:14.149Z,32.60
2023-03-18T10:35:48.940Z,33.15
2023-03-18T10:38:21.680Z,28.10
2023-03-18T10:40:50.460Z,27.83
2023-03-18T10:43:20.678Z,25.73
2023-03-18T10:45:50.718Z,25.23
2023-03-18T10:48:22.323Z,21.98
2023-03-18T10:51:07.693Z,21.33
2023-03-18T10:53:39.930Z,22.17
2023-03-18T10:56:09.677Z,23.73
2023-03-18T10:58:39.338Z,22.55
2023-03-18T11:01:08.876Z,22.85
2023-03-18T11:03:39.740Z,21.58
2023-03-18T11:06:18.881Z,27.27
2023-03-18T11:08:49.452Z,18.25
2023-03-18T11:11:27.745Z,19.98
2023-03-18T11:13:58.311Z,17.92
2023-03-18T11:16:31.813Z,25.13
2023-03-18T11:19:01.320Z,23.80
2023-03-18T11:21:31.646Z,23.83
2023-03-18T11:24:10.725Z,22.48
2023-03-18T11:26:53.803Z,20.70
2023-03-18T11:29:25.320Z,22.55
2023-03-18T11:31:58.162Z,18.15
2023-03-18T11:34:27.133Z,22.55
2023-03-18T11:37:01.297Z,16.42
2023-03-18T11:39:31.666Z,20.23
2023-03-18T11:42:00.916Z,22.40
2023-03-18T11:44:32.098Z,21.55
2023-03-18T11:47:13.785Z,21.13
2023-03-18T11:49:43.983Z,19.70
2023-03-18T11:52:37.821Z,19.42
2023-03-18T11:55:14.058Z,16.13
2023-03-18T11:57:59.774Z,16.75
2023-03-18T12:00:30.679Z,14.48
2023-03-18T12:03:30.667Z,17.67
2023-03-18T12:06:06.716Z,21.00
2023-03-18T12:08:48.012Z,14.32
2023-03-18T12:11:23.516Z,18.35
2023-03-18T12:14:00.226Z,16.33
2023-03-18T12:16:41.406Z,13.30
2023-03-18T12:19:36.868Z,16.45
2023-03-18T12:22:20.474Z,14.93
2023-03-18T12:25:03.656Z,16.85
2023-03-18T12:27:39.282Z,18.30
2023-03-18T12:30:50.927Z,16.98
2023-03-18T12:33:34.100Z,17.45
2023-03-18T12:36:08.145Z,14.82
2023-03-18T12:39:26.417Z,18.00
2023-03-18T12:42:03.067Z,14.05
2023-03-18T12:44:47.758Z,14.75
2023-03-18T12:47:19.931Z,13.93
2023-03-18T12:49:50.515Z,14.55
2023-03-18T12:52:28.516Z,18.30
2023-03-18T12:55:02.542Z,14.68
2023-03-18T12:57:42.179Z,11.55
2023-03-18T13:00:23.962Z,14.25
2023-03-18T13:03:07.261Z,17.52
2023-03-18T13:05:43.940Z,14.02
2023-03-18T13:09:02.961Z,17.52
2023-03-18T13:11:53.840Z,13.35
2023-03-18T13:14:28.940Z,15.93
2023-03-18T13:16:58.603Z,13.98
2023-03-18T13:19:27.329Z,13.32
2023-03-18T13:22:01.697Z,12.30
2023-03-18T13:24:54.131Z,16.83
2023-03-18T13:28:04.069Z,10.82
2023-03-18T13:30:41.494Z,12.75
2023-03-18T13:33:41.347Z,12.25
2023-03-18T13:36:50.827Z,11.50
2023-03-18T13:39:27.107Z,12.27
2023-03-18T13:42:26.965Z,9.10
2023-03-18T13:45:04.829Z,11.50
2023-03-18T13:47:37.910Z,10.57
2023-03-18T13:50:23.910Z,7.85
2023-03-18T13:52:55.314Z,11.57
2023-03-18T13:55:32.075Z,10.23
2023-03-18T13:58:19.290Z,11.77
2023-03-18T14:01:10.693Z,12.00
2023-03-18T14:06:55.769Z,10.68
2023-03-18T14:09:36.410Z,12.95
2023-03-18T14:12:19.089Z,11.18
2023-03-18T14:15:09.446Z,10.23
2023-03-18T14:17:47.792Z,10.40
2023-03-18T14:20:38.152Z,11.43
2023-03-18T14:23:40.613Z,14.98
2023-03-18T14:26:19.382Z,8.55
2023-03-18T14:28:49.772Z,12.00
2023-03-18T14:31:33.620Z,8.32
2023-03-18T14:34:29.351Z,12.13
2023-03-18T14:37:30.393Z,11.93
2023-03-18T14:40:07.373Z,8.93
2023-03-18T14:42:54.326Z,9.52
2023-03-18T14:45:26.162Z,10.85
2023-03-18T14:47:56.161Z,8.43
2023-03-18T14:50:32.913Z,11.88
2023-03-18T14:53:06.650Z,9.05
2023-03-18T14:55:37.228Z,10.38
2023-03-18T14:58:06.078Z,10.60
2023-03-18T15:00:36.397Z,8.02
2023-03-18T15:03:08.409Z,9.00
2023-03-18T15:05:39.176Z,8.98
2023-03-18T15:08:15.177Z,8.30
2023-03-18T15:10:47.475Z,7.30
2023-03-18T15:13:18.285Z,10.07
2023-03-18T15:15:47.156Z,7.57
2023-03-18T15:18:20.813Z,8.75
2023-03-18T15:20:52.286Z,11.40
2023-03-18T15:23:23.979Z,8.20
2023-03-18T15:25:54.209Z,9.18
2023-03-18T15:28:24.777Z,7.20
2023-03-18T15:30:56.121Z,6.93
2023-03-18T15:33:26.289Z,8.77
2023-03-18T15:35:58.837Z,8.75
2023-03-18T15:38:28.850Z,8.15
2023-03-18T15:41:00.043Z,7.15
2023-03-18T15:43:35.919Z,10.13
2023-03-18T15:46:08.776Z,10.52
2023-03-18T15:48:40.086Z,7.40
2023-03-18T15:51:22.275Z,9.30
2023-03-18T15:53:53.868Z,8.00
2023-03-18T15:56:29.498Z,7.38
2023-03-18T15:59:07.172Z,6.80
2023-03-18T16:01:36.360Z,6.95
2023-03-18T16:04:06.414Z,8.15
2023-03-18T16:06:35.445Z,8.52
2023-03-18T16:09:14.375Z,7.15
2023-03-18T16:11:45.494Z,8.77
2023-03-18T16:14:17.472Z,10.68
2023-03-18T16:16:46.345Z,6.57
2023-03-18T16:19:16.881Z,7.05
2023-03-18T16:21:45.845Z,7.15
2023-03-18T16:24:14.489Z,8.68
2023-03-18T16:26:46.289Z,6.38
2023-03-18T16:29:19.148Z,5.70
2023-03-18T16:31:47.933Z,6.45
2023-03-18T16:34:17.346Z,7.45
2023-03-18T16:36:46.209Z,8.40
2023-03-18T16:39:19.747Z,7.75
2023-03-18T16:41:49.842Z,6.53
2023-03-18T16:44:19.827Z,6.20
2023-03-18T16:46:50.191Z,6.90
2023-03-18T16:49:22.321Z,8.05
2023-03-18T16:51:51.742Z,7.32
2023-03-18T16:54:22.513Z,6.22
2023-03-18T16:56:55.123Z,8.40
2023-03-18T16:59:25.014Z,7.28
2023-03-18T17:01:54.255Z,5.47
2023-03-18T17:04:26.288Z,7.47
2023-03-18T17:06:55.263Z,7.47
2023-03-18T17:09:25.070Z,5.57
2023-03-18T17:11:57.499Z,4.88
2023-03-18T17:14:31.885Z,7.93
2023-03-18T17:17:02.071Z,5.20
2023-03-18T17:19:31.184Z,6.05
2023-03-18T17:21:59.767Z,6.07
2023-03-18T17:24:28.673Z,5.75
2023-03-18T17:26:58.710Z,5.95
2023-03-18T17:29:29.612Z,5.70
2023-03-18T17:31:58.357Z,6.95
2023-03-18T17:34:27.177Z,5.50
2023-03-18T17:36:56.595Z,5.72
2023-03-18T17:39:25.540Z,5.80
2023-03-18T17:41:54.420Z,7.68
2023-03-18T17:44:29.283Z,5.32
2023-03-18T17:46:58.746Z,5.88
2023-03-18T17:49:28.305Z,4.40
2023-03-18T17:51:57.132Z,5.05
2023-03-18T17:54:27.552Z,5.03
2023-03-18T17:56:56.292Z,5.28
2023-03-18T17:59:26.345Z,7.35
2023-03-18T18:01:55.282Z,7.22
2023-03-18T18:04:24.882Z,6.03
2023-03-18T18:06:54.447Z,6.88
2023-03-18T18:09:23.377Z,5.45
2023-03-18T18:11:52.040Z,7.78
2023-03-18T18:14:23.380Z,6.85
2023-03-18T18:16:54.141Z,4.78
2023-03-18T18:19:24.536Z,6.15
2023-03-18T18:21:53.392Z,5.50
2023-03-18T18:24:24.660Z,6.60
2023-03-18T18:26:53.428Z,4.85
2023-03-18T18:29:24.896Z,5.97
2023-03-18T18:31:54.862Z,5.78
2023-03-18T18:34:23.601Z,5.05
2023-03-18T18:36:52.270Z,7.05
2023-03-18T18:39:21.076Z,5.00
2023-03-18T18:41:49.873Z,7.28
2023-03-18T18:44:19.280Z,6.93
2023-03-18T18:46:47.986Z,6.97
2023-03-18T18:49:23.114Z,7.07
2023-03-18T18:51:53.423Z,6.13
2023-03-18T18:54:22.329Z,5.70
2023-03-18T18:56:50.989Z,6.80
2023-03-18T18:59:24.523Z,6.18
2023-03-18T19:01:53.308Z,6.65
2023-03-18T19:04:23.815Z,6.13
2023-03-18T19:06:52.901Z,6.15
2023-03-18T19:09:23.255Z,6.20
2023-03-18T19:11:51.996Z,6.95
2023-03-18T19:14:24.560Z,8.50
2023-03-18T19:16:53.763Z,8.05
2023-03-18T19:19:26.743Z,5.28
2023-03-18T19:21:55.377Z,7.45
2023-03-18T19:24:29.476Z,7.72
2023-03-18T19:26:59.436Z,6.30
2023-03-18T19:29:28.104Z,7.05
2023-03-18T19:31:56.946Z,6.97
2023-03-18T19:34:27.103Z,6.75
2023-03-18T19:36:56.077Z,6.22
2023-03-18T19:39:24.887Z,9.00
2023-03-18T19:41:53.489Z,12.13
2023-03-18T19:44:23.374Z,7.70
2023-03-18T19:46:53.374Z,10.38
2023-03-18T19:49:26.411Z,8.52
2023-03-18T19:51:56.153Z,11.25
2023-03-18T19:54:31.535Z,10.70
2023-03-18T19:57:01.502Z,11.38
2023-03-18T19:59:38.234Z,5.82
2023-03-18T20:02:22.034Z,5.38
2023-03-18T20:04:52.587Z,12.40
2023-03-18T20:07:22.006Z,7.60
2023-03-18T20:09:50.688Z,8.82
2023-03-18T20:12:25.100Z,7.55
2023-03-18T20:14:53.827Z,10.20
2023-03-18T20:17:36.070Z,6.35
2023-03-18T20:20:07.884Z,6.75
2023-03-18T20:22:38.155Z,7.10
2023-03-18T20:25:09.327Z,6.82
2023-03-18T20:27:38.088Z,5.90
2023-03-18T20:30:22.065Z,6.88
2023-03-18T20:32:51.167Z,7.47
2023-03-18T20:35:21.440Z,7.32
2023-03-18T20:37:50.422Z,7.43
2023-03-18T20:40:22.841Z,7.90
2023-03-18T20:42:52.725Z,7.40
2023-03-18T20:45:22.322Z,6.93
2023-03-18T20:47:51.137Z,5.13
2023-03-18T20:50:23.105Z,7.10
2023-03-18T20:52:52.430Z,4.72
2023-03-18T20:55:23.867Z,5.75
2023-03-18T20:57:52.936Z,6.82
2023-03-18T21:00:24.083Z,8.57
2023-03-18T21:02:53.768Z,6.72
2023-03-18T21:05:24.008Z,6.38
2023-03-18T21:07:52.748Z,7.20
2023-03-18T21:10:23.428Z,7.35
2023-03-18T21:12:52.383Z,9.93
2023-03-18T21:15:22.835Z,8.52
2023-03-18T21:17:51.498Z,6.50
2023-03-18T21:20:24.055Z,7.70
2023-03-18T21:22:52.810Z,5.43
2023-03-18T21:25:22.940Z,8.93
2023-03-18T21:27:52.576Z,9.00
2023-03-18T21:30:23.942Z,8.07
2023-03-18T21:32:52.634Z,6.93
2023-03-18T21:35:26.501Z,6.47
2023-03-18T21:37:55.170Z,5.63
2023-03-18T21:40:24.847Z,7.97
2023-03-18T21:42:53.434Z,6.18
2023-03-18T21:45:23.800Z,7.90
2023-03-18T21:47:53.262Z,6.97
2023-03-18T21:50:25.385Z,7.57
2023-03-18T21:52:54.765Z,5.97
2023-03-18T21:55:23.629Z,8.52
2023-03-18T21:57:52.222Z,7.80
2023-03-18T22:00:22.428Z,8.48
2023-03-18T22:02:51.103Z,7.95
2023-03-18T22:05:20.837Z,5.65
2023-03-18T22:07:51.498Z,8.63
2023-03-18T22:10:21.373Z,8.52
2023-03-18T22:12:50.049Z,6.82
2023-03-18T22:15:38.067Z,7.80
2023-03-18T22:18:07.420Z,6.20
2023-03-18T22:20:36.441Z,7.45
2023-03-18T22:23:16.488Z,7.75
2023-03-18T22:25:45.746Z,8.85
2023-03-18T22:28:14.375Z,8.27
2023-03-18T22:30:43.650Z,6.45
2023-03-18T22:33:20.185Z,6.43
2023-03-18T22:35:49.164Z,10.07
2023-03-18T22:38:20.817Z,9.45
2023-03-18T22:40:54.137Z,6.80
2023-03-18T22:43:30.052Z,7.80
2023-03-18T22:45:58.992Z,7.68
2023-03-18T22:48:28.030Z,7.68
2023-03-18T22:50:58.532Z,9.30
2023-03-18T22:53:30.033Z,6.30
2023-03-18T22:55:58.872Z,9.05
2023-03-18T22:58:28.364Z,8.35
2023-03-18T23:00:57.313Z,7.90
2023-03-18T23:03:29.379Z,7.10
2023-03-18T23:05:58.934Z,7.85
2023-03-18T23:08:28.967Z,7.38
2023-03-18T23:10:58.223Z,8.40
2023-03-18T23:13:29.303Z,7.22
2023-03-18T23:15:58.402Z,8.55
2023-03-18T23:18:27.022Z,7.97
2023-03-18T23:20:55.657Z,8.95
2023-03-18T23:23:24.380Z,9.30
2023-03-18T23:25:54.401Z,7.53
2023-03-18T23:28:22.898Z,9.30
2023-03-18T23:30:53.357Z,8.18
2023-03-18T23:33:22.010Z,9.30
2023-03-18T23:35:50.699Z,7.32
2023-03-18T23:38:19.433Z,7.57
2023-03-18T23:40:48.901Z,6.97
2023-03-18T23:43:18.812Z,6.25
2023-03-18T23:45:47.879Z,8.02
2023-03-18T23:48:16.652Z,6.97
2023-03-18T23:50:45.368Z,5.97
2023-03-18T23:53:13.927Z,9.20
2023-03-18T23:55:42.444Z,6.97
2023-03-18T23:58:11.008Z,7.25
